Terminal Aerodrome Forecast
Issued by NWS Blacksburg, VA

Home | Current Version | Previous Version | Text Only | Print | Product List | Glossary On
Versions: 1 2 3 4 5 6 7 8 9 10 11 12 13 14 15 16 17 18 19 20 21 22 23 24 25 26 27 28 29 30 31 32
000
FTUS41 KRNK 010906 AAA
TAFDAN
TAF AMD
KDAN 010906Z 0109/0206 00000KT P6SM SKC
      TEMPO 0109/0112 3SM BR SCT005
     FM011300 29003KT P6SM FEW020
     FM011600 03004KT P6SM SCT050=

USA.gov is the U.S. government's official web portal to all federal, state and local government web resources and services.